CheckWX is a tool to help pilots better visualize weather data.  It is not intended as a substitute for an official pre-flight weather briefing.

06:56:08 UTC

LTBX TAF
Samandıra Air Base Airport
Ümraniye, Turkey
TAF LTBX 190440Z 1906/1915 03007KT 9999 SCT035 BECMG 1906/1909 03017KT

Jun-19@
06:00 UTC

Jun-19 @ 06:00 UTC

Jun-19@
15:00 UTC

Jun-19 @ 15:00 UTC

TAF LTBX 190440Z 1906/1915 03007KT 9999 SCT035
Wind
  • 030° at 7 KTS
Cloud Levels
  • Scattered at 3,500' AGL

Jun-19@
06:00 UTC

Jun-19 @ 06:00 UTC

Jun-19@
15:00 UTC

Jun-19 @ 15:00 UTC

BECMG 1906/1909 03017KT

Becoming

Becoming Conditions expected by Wed, Jun 19, 2019 @ 09:00 UTC

Wind
  • 030° at 17 KTS
Cloud Levels
  • Scattered at 3,500' AGL